Terminal Aerodrome Forecast
Issued by NWS San Angelo, TX

Home | Current Version | Previous Version | Text Only | Print | Product List | Glossary On
Versions: 1 2 3 4 5 6 7 8 9 10 11 12 13 14 15 16 17 18 19 20 21 22 23 24 25 26 27 28 29 30 31 32
000
FTUS44 KSJT 200520
TAFABI
TAF
KABI 200520Z 2006/2106 VRB05KT P6SM SKC
     FM200800 14006KT P6SM BKN018
     FM201000 15006KT P6SM OVC008
      TEMPO 2010/2014 4SM BR
     FM201500 16008KT P6SM OVC012
     FM201700 18015G22KT P6SM BKN025
     FM201900 18015G22KT P6SM SCT250=

USA.gov is the U.S. government's official web portal to all federal, state and local government web resources and services.